createdAt,value
2022-11-08T00:00:44.193Z,9.06
2022-11-08T00:01:48.743Z,9.11
2022-11-08T00:02:50.749Z,9.11
2022-11-08T00:03:55.283Z,9.15
2022-11-08T00:04:57.102Z,9.17
2022-11-08T00:06:13.936Z,9.18
2022-11-08T00:07:30.767Z,9.20
2022-11-08T00:08:47.661Z,9.21
2022-11-08T00:10:04.522Z,9.22
2022-11-08T00:11:21.319Z,9.23
2022-11-08T00:12:38.107Z,9.25
2022-11-08T00:13:54.951Z,9.27
2022-11-08T00:14:59.343Z,9.28
2022-11-08T00:16:01.351Z,9.31
2022-11-08T00:17:05.787Z,9.33
2022-11-08T00:18:10.491Z,9.36
2022-11-08T00:19:12.332Z,9.37
2022-11-08T00:20:16.711Z,9.39
2022-11-08T00:21:18.535Z,9.42
2022-11-08T00:22:23.145Z,9.43
2022-11-08T00:23:24.953Z,9.45
2022-11-08T00:24:29.381Z,9.46
2022-11-08T00:25:31.203Z,9.48
2022-11-08T00:26:35.591Z,9.50
2022-11-08T00:27:39.990Z,9.51
2022-11-08T00:28:41.906Z,9.54
2022-11-08T00:29:46.428Z,9.56
2022-11-08T00:30:48.205Z,9.57
2022-11-08T00:31:52.930Z,9.59
2022-11-08T00:32:54.727Z,9.58
2022-11-08T00:33:59.139Z,9.58
2022-11-08T00:35:00.941Z,9.56
2022-11-08T00:36:05.380Z,9.56
2022-11-08T00:37:07.272Z,9.55
2022-11-08T00:38:11.710Z,9.54
2022-11-08T00:39:13.603Z,9.50
2022-11-08T00:40:18.015Z,9.49
2022-11-08T00:41:20.351Z,9.47
2022-11-08T00:42:24.877Z,9.45
2022-11-08T00:43:26.656Z,9.43
2022-11-08T00:44:31.043Z,9.42
2022-11-08T00:45:32.944Z,9.43
2022-11-08T00:46:37.660Z,9.42
2022-11-08T00:47:39.416Z,9.42
2022-11-08T00:48:43.868Z,9.42
2022-11-08T00:49:45.643Z,9.43
2022-11-08T00:50:50.065Z,9.44
2022-11-08T00:51:51.915Z,9.45
2022-11-08T00:52:56.329Z,9.46
2022-11-08T00:53:58.150Z,9.47
2022-11-08T00:55:02.630Z,9.50
2022-11-08T00:56:05.712Z,9.46
2022-11-08T00:57:10.147Z,9.54
2022-11-08T00:58:12.012Z,9.55
2022-11-08T00:59:17.317Z,9.56
2022-11-08T01:00:19.159Z,9.58
2022-11-08T01:01:24.337Z,9.59
2022-11-08T01:02:26.293Z,9.61
2022-11-08T01:03:30.749Z,9.63
2022-11-08T01:04:35.287Z,9.63
2022-11-08T01:05:37.600Z,9.65
2022-11-08T01:06:42.154Z,9.65
2022-11-08T01:07:43.945Z,9.65
2022-11-08T01:08:49.848Z,9.64
2022-11-08T01:09:54.278Z,9.67
2022-11-08T01:10:56.176Z,9.67
2022-11-08T01:12:00.558Z,9.66
2022-11-08T01:13:02.445Z,9.67
2022-11-08T01:14:06.832Z,9.69
2022-11-08T01:15:08.833Z,9.69
2022-11-08T01:16:17.581Z,9.71
2022-11-08T01:17:21.975Z,9.72
2022-11-08T01:18:23.759Z,9.72
2022-11-08T01:19:28.164Z,9.75
2022-11-08T01:20:29.949Z,9.75
2022-11-08T01:21:34.385Z,9.75
2022-11-08T01:22:36.287Z,9.78
2022-11-08T01:23:40.666Z,9.79
2022-11-08T01:24:42.516Z,9.80
2022-11-08T01:25:47.959Z,9.80
2022-11-08T01:26:53.318Z,9.80
2022-11-08T01:27:55.179Z,9.82
2022-11-08T01:28:59.896Z,9.83
2022-11-08T01:30:01.779Z,9.83
2022-11-08T01:31:10.827Z,9.83
2022-11-08T01:32:12.647Z,9.85
2022-11-08T01:33:17.230Z,9.86
2022-11-08T01:34:21.674Z,9.87
2022-11-08T01:35:23.536Z,9.88
2022-11-08T01:36:28.763Z,9.89
2022-11-08T01:37:30.546Z,9.90
2022-11-08T01:38:35.032Z,9.89
2022-11-08T01:39:39.429Z,9.91
2022-11-08T01:40:45.149Z,9.91
2022-11-08T01:41:49.603Z,9.93
2022-11-08T01:42:51.547Z,9.95
2022-11-08T01:44:02.021Z,9.96
2022-11-08T01:45:07.941Z,9.96
2022-11-08T01:46:09.710Z,9.94
2022-11-08T01:47:14.110Z,9.96
2022-11-08T01:48:16.377Z,9.95
2022-11-08T01:49:23.973Z,9.96
2022-11-08T01:50:28.401Z,9.90
2022-11-08T01:51:31.586Z,9.96
2022-11-08T01:52:36.774Z,9.97
2022-11-08T01:53:38.674Z,9.97
2022-11-08T01:54:51.719Z,9.98
2022-11-08T01:55:53.497Z,9.98
2022-11-08T01:56:57.858Z,9.98
2022-11-08T01:58:06.895Z,9.99
2022-11-08T01:59:09.061Z,10.01
2022-11-08T02:00:14.346Z,10.02
2022-11-08T02:01:16.239Z,10.02
2022-11-08T02:02:20.803Z,10.03
2022-11-08T02:03:23.001Z,10.05
2022-11-08T02:04:27.417Z,10.06
2022-11-08T02:05:30.041Z,10.05
2022-11-08T02:06:34.647Z,10.04
2022-11-08T02:07:36.522Z,10.03
2022-11-08T02:08:41.711Z,10.03
2022-11-08T02:09:44.176Z,10.05
2022-11-08T02:10:49.800Z,10.04
2022-11-08T02:11:51.653Z,10.04
2022-11-08T02:12:56.335Z,10.04
2022-11-08T02:13:58.248Z,10.03
2022-11-08T02:15:02.790Z,10.04
2022-11-08T02:16:07.097Z,10.05
2022-11-08T02:17:12.444Z,10.06
2022-11-08T02:18:14.517Z,10.07
2022-11-08T02:19:20.897Z,10.07
2022-11-08T02:20:25.319Z,10.06
2022-11-08T02:21:41.945Z,10.08
2022-11-08T02:22:55.721Z,10.09
2022-11-08T02:23:58.903Z,10.10
2022-11-08T02:25:03.349Z,10.12
2022-11-08T02:26:05.142Z,10.13
2022-11-08T02:27:09.570Z,10.14
2022-11-08T02:28:11.382Z,10.16
2022-11-08T02:29:29.222Z,10.16
2022-11-08T02:30:40.655Z,10.18
2022-11-08T02:31:42.430Z,10.18
2022-11-08T02:32:47.279Z,10.19
2022-11-08T02:33:49.262Z,10.19
2022-11-08T02:34:53.682Z,10.20
2022-11-08T02:35:55.552Z,10.21
2022-11-08T02:36:59.930Z,10.21
2022-11-08T02:38:04.296Z,10.20
2022-11-08T02:39:06.086Z,10.21
2022-11-08T02:40:10.733Z,10.15
2022-11-08T02:41:12.484Z,10.23
2022-11-08T02:42:18.634Z,10.22
2022-11-08T02:43:20.785Z,10.22
2022-11-08T02:44:25.173Z,10.22
2022-11-08T02:45:26.944Z,10.23
2022-11-08T02:46:31.304Z,10.21
2022-11-08T02:47:33.166Z,10.16
2022-11-08T02:48:37.531Z,10.22
2022-11-08T02:49:41.894Z,10.23
2022-11-08T02:50:43.706Z,10.22
2022-11-08T02:51:48.171Z,10.22
2022-11-08T02:52:49.960Z,10.21
2022-11-08T02:53:54.330Z,10.21
2022-11-08T02:54:58.701Z,10.23
2022-11-08T02:56:00.479Z,10.24
2022-11-08T02:57:04.957Z,10.25
2022-11-08T02:58:06.717Z,10.25
2022-11-08T02:59:11.074Z,10.26
2022-11-08T03:00:13.321Z,10.26
2022-11-08T03:01:17.804Z,10.27
2022-11-08T03:02:19.674Z,10.27
2022-11-08T03:03:24.167Z,10.26
2022-11-08T03:04:28.612Z,10.27
2022-11-08T03:05:30.453Z,10.28
2022-11-08T03:06:34.958Z,10.28
2022-11-08T03:07:36.726Z,10.26
2022-11-08T03:08:41.095Z,10.26
2022-11-08T03:09:42.847Z,10.24
2022-11-08T03:10:47.314Z,10.22
2022-11-08T03:11:49.090Z,10.18
2022-11-08T03:12:59.490Z,10.13
2022-11-08T03:14:01.235Z,10.06
2022-11-08T03:15:05.690Z,9.97
2022-11-08T03:16:07.601Z,9.97
2022-11-08T03:17:12.094Z,9.92
2022-11-08T03:18:13.857Z,9.86
2022-11-08T03:19:18.268Z,9.81
2022-11-08T03:20:20.040Z,9.69
2022-11-08T03:21:24.404Z,9.69
2022-11-08T03:22:26.153Z,9.63
2022-11-08T03:23:30.637Z,9.58
2022-11-08T03:24:33.928Z,9.52
2022-11-08T03:25:38.483Z,9.47
2022-11-08T03:26:42.829Z,9.42
2022-11-08T03:27:44.616Z,9.36
2022-11-08T03:28:49.052Z,9.30
2022-11-08T03:29:50.792Z,9.24
2022-11-08T03:30:55.740Z,9.20
2022-11-08T03:31:57.590Z,9.15
2022-11-08T03:33:01.997Z,9.10
2022-11-08T03:34:03.775Z,9.03
2022-11-08T03:35:08.389Z,8.98
2022-11-08T03:36:10.221Z,8.92
2022-11-08T03:37:14.743Z,8.87
2022-11-08T03:38:17.047Z,8.82
2022-11-08T03:39:21.685Z,8.77
2022-11-08T03:40:23.707Z,8.72
2022-11-08T03:41:28.073Z,8.65
2022-11-08T03:42:29.911Z,8.60
2022-11-08T03:43:34.283Z,8.55
2022-11-08T03:44:36.134Z,8.50
2022-11-08T03:45:40.689Z,8.46
2022-11-08T03:46:42.447Z,8.42
2022-11-08T03:47:47.468Z,8.36
2022-11-08T03:48:51.857Z,8.31
2022-11-08T03:49:53.618Z,8.25
2022-11-08T03:50:58.050Z,8.23
2022-11-08T03:51:59.860Z,8.20
2022-11-08T03:53:04.217Z,8.18
2022-11-08T03:54:06.008Z,8.16
2022-11-08T03:55:10.776Z,8.15
2022-11-08T03:56:15.165Z,8.14
2022-11-08T03:57:16.985Z,8.15
2022-11-08T03:58:21.533Z,8.16
2022-11-08T03:59:23.433Z,8.20
2022-11-08T04:00:28.948Z,8.22
2022-11-08T04:01:30.798Z,8.26
2022-11-08T04:02:35.253Z,8.32
2022-11-08T04:03:37.113Z,8.39
2022-11-08T04:04:41.552Z,8.45
2022-11-08T04:05:45.894Z,8.50
2022-11-08T04:06:47.758Z,8.58
2022-11-08T04:07:52.144Z,8.64
2022-11-08T04:08:53.906Z,8.70
2022-11-08T04:09:58.655Z,8.76
2022-11-08T04:11:24.190Z,8.79
2022-11-08T04:12:41.005Z,8.83
2022-11-08T04:13:57.826Z,8.87
2022-11-08T04:15:14.617Z,8.90
2022-11-08T04:16:19.123Z,8.92
2022-11-08T04:17:41.457Z,8.92
2022-11-08T04:18:58.271Z,8.95
2022-11-08T04:20:15.122Z,8.96
2022-11-08T04:21:23.050Z,8.96
2022-11-08T04:22:24.988Z,8.93
2022-11-08T04:23:29.450Z,8.89
2022-11-08T04:24:31.496Z,8.85
2022-11-08T04:25:35.869Z,8.79
2022-11-08T04:26:40.294Z,8.73
2022-11-08T04:27:42.055Z,8.67
2022-11-08T04:28:46.557Z,8.62
2022-11-08T04:29:48.384Z,8.56
2022-11-08T04:30:56.746Z,8.49
2022-11-08T04:32:01.138Z,8.43
2022-11-08T04:33:03.495Z,8.38
2022-11-08T04:34:08.196Z,8.30
2022-11-08T04:35:10.005Z,8.26
2022-11-08T04:36:15.489Z,8.21
2022-11-08T04:37:19.940Z,8.17
2022-11-08T04:38:21.979Z,8.11
2022-11-08T04:39:26.390Z,8.06
2022-11-08T04:40:28.853Z,8.03
2022-11-08T04:41:33.236Z,7.97
2022-11-08T04:42:35.010Z,7.93
2022-11-08T04:43:39.655Z,7.87
2022-11-08T04:44:41.416Z,7.83
2022-11-08T04:45:45.767Z,7.80
2022-11-08T04:46:47.677Z,7.76
2022-11-08T04:47:52.115Z,7.74
2022-11-08T04:48:54.740Z,7.71
2022-11-08T04:49:59.082Z,7.69
2022-11-08T04:51:04.820Z,7.66
2022-11-08T04:52:09.189Z,7.63
2022-11-08T04:53:10.978Z,7.61
2022-11-08T04:54:15.344Z,7.59
2022-11-08T04:55:17.079Z,7.55
2022-11-08T04:56:22.285Z,7.54
2022-11-08T04:57:24.152Z,7.52
2022-11-08T04:58:28.615Z,7.49
2022-11-08T04:59:30.376Z,7.48
2022-11-08T05:00:34.812Z,7.46
2022-11-08T05:01:36.745Z,7.46
2022-11-08T05:02:41.360Z,7.46
2022-11-08T05:03:43.300Z,7.46
2022-11-08T05:04:47.746Z,7.46
2022-11-08T05:05:49.653Z,7.45
2022-11-08T05:06:53.997Z,7.43
2022-11-08T05:07:55.746Z,7.42
2022-11-08T05:09:00.468Z,7.41
2022-11-08T05:10:02.882Z,7.39
2022-11-08T05:11:08.392Z,7.38
2022-11-08T05:12:12.852Z,7.36
2022-11-08T05:13:14.637Z,7.34
2022-11-08T05:14:19.076Z,7.26
2022-11-08T05:15:20.826Z,7.30
2022-11-08T05:16:26.410Z,7.29
2022-11-08T05:17:28.262Z,7.27
2022-11-08T05:18:33.213Z,7.26
2022-11-08T05:19:50.051Z,7.17
2022-11-08T05:21:10.475Z,7.21
2022-11-08T05:22:27.362Z,7.18
2022-11-08T05:23:29.197Z,7.15
2022-11-08T05:24:34.312Z,7.12
2022-11-08T05:25:40.366Z,7.09
2022-11-08T05:26:45.615Z,7.05
2022-11-08T05:27:47.379Z,7.03
2022-11-08T05:28:51.760Z,7.03
2022-11-08T05:29:53.590Z,7.00
2022-11-08T05:30:58.109Z,7.00
2022-11-08T05:31:59.895Z,7.00
2022-11-08T05:33:04.293Z,6.99
2022-11-08T05:34:07.432Z,6.98
2022-11-08T05:35:11.865Z,6.97
2022-11-08T05:36:14.166Z,6.96
2022-11-08T05:37:18.585Z,6.96
2022-11-08T05:38:20.795Z,6.96
2022-11-08T05:39:28.270Z,6.97
2022-11-08T05:40:33.935Z,6.99
2022-11-08T05:41:38.307Z,7.02
2022-11-08T05:42:40.125Z,7.07
2022-11-08T05:43:44.545Z,7.05
2022-11-08T05:44:46.323Z,7.17
2022-11-08T05:45:50.918Z,7.25
2022-11-08T05:46:55.279Z,7.31
2022-11-08T05:47:57.882Z,7.38
2022-11-08T05:49:02.323Z,7.43
2022-11-08T05:50:04.320Z,7.48
2022-11-08T05:51:08.721Z,7.54
2022-11-08T05:52:10.761Z,7.58
2022-11-08T05:53:15.350Z,7.62
2022-11-08T05:54:18.327Z,7.66
2022-11-08T05:55:23.464Z,7.68
2022-11-08T05:56:25.278Z,7.72
2022-11-08T05:57:29.713Z,7.74
2022-11-08T05:58:32.156Z,7.76
2022-11-08T05:59:36.529Z,7.77
2022-11-08T06:00:38.285Z,7.78
2022-11-08T06:01:42.858Z,7.78
2022-11-08T06:02:47.355Z,7.78
2022-11-08T06:03:49.189Z,7.77
2022-11-08T06:04:53.601Z,7.74
2022-11-08T06:05:57.972Z,7.74
2022-11-08T06:07:02.347Z,7.74
2022-11-08T06:08:04.246Z,7.72
2022-11-08T06:09:08.815Z,7.70
2022-11-08T06:10:10.705Z,7.71
2022-11-08T06:11:19.156Z,7.71
2022-11-08T06:12:23.609Z,7.71
2022-11-08T06:13:28.296Z,7.72
2022-11-08T06:14:30.419Z,7.73
2022-11-08T06:15:34.936Z,7.73
2022-11-08T06:16:36.724Z,7.76
2022-11-08T06:17:41.839Z,7.78
2022-11-08T06:18:43.631Z,7.83
2022-11-08T06:19:48.029Z,7.88
2022-11-08T06:20:49.883Z,7.94
2022-11-08T06:21:54.336Z,8.02
2022-11-08T06:22:56.111Z,8.12
2022-11-08T06:24:00.577Z,8.20
2022-11-08T06:25:02.460Z,8.34
2022-11-08T06:26:07.534Z,8.45
2022-11-08T06:27:12.469Z,8.57
2022-11-08T06:28:14.742Z,8.69
2022-11-08T06:29:19.130Z,8.79
2022-11-08T06:30:23.493Z,8.91
2022-11-08T06:31:25.330Z,9.02
2022-11-08T06:32:29.705Z,9.11
2022-11-08T06:33:31.690Z,9.22
2022-11-08T06:34:36.108Z,9.31
2022-11-08T06:35:37.950Z,9.38
2022-11-08T06:36:42.375Z,9.46
2022-11-08T06:37:44.573Z,9.51
2022-11-08T06:38:49.010Z,9.59
2022-11-08T06:39:50.788Z,9.64
2022-11-08T06:40:55.160Z,9.68
2022-11-08T06:41:56.992Z,9.73
2022-11-08T06:43:01.875Z,9.79
2022-11-08T06:44:03.802Z,9.85
2022-11-08T06:45:08.754Z,9.90
2022-11-08T06:46:10.617Z,9.95
2022-11-08T06:47:15.045Z,10.00
2022-11-08T06:48:16.818Z,10.07
2022-11-08T06:49:21.258Z,10.13
2022-11-08T06:50:23.170Z,10.20
2022-11-08T06:51:27.546Z,10.25
2022-11-08T06:52:29.509Z,10.33
2022-11-08T06:53:34.263Z,10.39
2022-11-08T06:54:36.066Z,10.45
2022-11-08T06:55:40.544Z,10.51
2022-11-08T06:56:42.320Z,10.57
2022-11-08T06:57:46.791Z,10.61
2022-11-08T06:58:48.529Z,10.66
2022-11-08T06:59:52.910Z,10.72
2022-11-08T07:00:57.306Z,10.78
2022-11-08T07:02:01.840Z,10.82
2022-11-08T07:03:04.101Z,10.89
2022-11-08T07:04:08.697Z,10.94
2022-11-08T07:05:10.848Z,10.98
2022-11-08T07:06:15.330Z,11.03
2022-11-08T07:07:17.110Z,11.09
2022-11-08T07:08:23.988Z,11.16
2022-11-08T07:09:28.527Z,11.23
2022-11-08T07:10:31.074Z,11.30
2022-11-08T07:11:35.509Z,11.35
2022-11-08T07:12:37.275Z,11.38
2022-11-08T07:13:41.661Z,11.43
2022-11-08T07:14:43.428Z,11.45
2022-11-08T07:15:48.187Z,11.45
2022-11-08T07:16:52.628Z,11.49
2022-11-08T07:17:54.462Z,11.53
2022-11-08T07:18:58.909Z,11.58
2022-11-08T07:20:00.676Z,11.65
2022-11-08T07:21:05.319Z,11.72
2022-11-08T07:22:09.724Z,11.79
2022-11-08T07:23:11.692Z,11.84
2022-11-08T07:24:16.085Z,11.90
2022-11-08T07:25:24.859Z,11.94
2022-11-08T07:26:29.208Z,11.96
2022-11-08T07:27:30.950Z,11.98
2022-11-08T07:28:35.435Z,12.00
2022-11-08T07:29:39.799Z,11.97
2022-11-08T07:30:41.652Z,11.97
2022-11-08T07:31:47.248Z,11.94
2022-11-08T07:32:49.015Z,11.93
2022-11-08T07:33:53.446Z,11.89
2022-11-08T07:34:55.314Z,11.89
2022-11-08T07:35:59.758Z,11.85
2022-11-08T07:37:04.117Z,11.85
2022-11-08T07:38:05.959Z,11.85
2022-11-08T07:39:10.398Z,11.84
2022-11-08T07:40:12.448Z,11.85
2022-11-08T07:41:16.909Z,11.84
2022-11-08T07:42:18.772Z,11.85
2022-11-08T07:43:27.827Z,11.86
2022-11-08T07:44:36.212Z,11.85
2022-11-08T07:45:40.619Z,11.87
2022-11-08T07:46:44.986Z,11.87
2022-11-08T07:47:46.798Z,11.90
2022-11-08T07:48:51.210Z,11.94
2022-11-08T07:49:52.986Z,11.96
2022-11-08T07:50:57.599Z,11.96
2022-11-08T07:52:01.974Z,11.99
2022-11-08T07:53:03.802Z,12.01
2022-11-08T07:54:08.305Z,12.06
2022-11-08T07:55:10.102Z,12.09
2022-11-08T07:56:14.584Z,12.11
2022-11-08T07:57:19.033Z,12.13
2022-11-08T07:58:23.505Z,12.19
2022-11-08T07:59:25.285Z,12.21
2022-11-08T08:00:29.784Z,12.26
2022-11-08T08:01:34.251Z,12.27
2022-11-08T08:02:36.124Z,12.31
2022-11-08T08:03:40.519Z,12.33
2022-11-08T08:04:42.329Z,12.35
2022-11-08T08:05:47.713Z,12.38
2022-11-08T08:06:52.078Z,12.43
2022-11-08T08:07:57.407Z,12.44
2022-11-08T08:09:01.849Z,12.48
2022-11-08T08:10:06.390Z,12.51
2022-11-08T08:11:10.893Z,12.52
2022-11-08T08:12:12.758Z,12.57
2022-11-08T08:13:17.514Z,12.62
2022-11-08T08:14:22.187Z,12.63
2022-11-08T08:15:24.154Z,12.69
2022-11-08T08:16:28.544Z,12.69
2022-11-08T08:17:30.389Z,12.74
2022-11-08T08:18:34.775Z,12.78
2022-11-08T08:19:36.530Z,12.82
2022-11-08T08:20:41.195Z,12.84
2022-11-08T08:21:42.953Z,12.88
2022-11-08T08:22:50.948Z,12.91
2022-11-08T08:23:55.326Z,12.97
2022-11-08T08:25:01.861Z,13.01
2022-11-08T08:26:07.835Z,13.05
2022-11-08T08:27:11.287Z,13.08
2022-11-08T08:28:15.664Z,13.11
2022-11-08T08:29:17.457Z,13.14
2022-11-08T08:30:22.155Z,13.16
2022-11-08T08:31:26.583Z,13.18
2022-11-08T08:32:31.784Z,13.20
2022-11-08T08:33:37.805Z,13.18
2022-11-08T08:34:40.934Z,13.27
2022-11-08T08:35:45.877Z,13.30
2022-11-08T08:36:50.328Z,13.32
2022-11-08T08:37:54.690Z,13.36
2022-11-08T08:38:59.173Z,13.39
2022-11-08T08:40:01.662Z,13.43
2022-11-08T08:41:06.189Z,13.45
2022-11-08T08:42:07.968Z,13.46
2022-11-08T08:43:12.328Z,13.50
2022-11-08T08:44:17.030Z,13.53
2022-11-08T08:45:18.829Z,13.57
2022-11-08T08:46:23.449Z,13.61
2022-11-08T08:47:25.235Z,13.65
2022-11-08T08:48:29.657Z,13.65
2022-11-08T08:49:34.061Z,13.69
2022-11-08T08:50:35.835Z,13.74
2022-11-08T08:51:40.325Z,13.77
2022-11-08T08:52:44.783Z,13.80
2022-11-08T08:53:49.205Z,13.84
2022-11-08T08:54:53.617Z,13.87
2022-11-08T08:55:58.046Z,13.89
2022-11-08T08:57:02.413Z,13.91
2022-11-08T08:58:06.893Z,13.92
2022-11-08T09:02:01.140Z,14.04
2022-11-08T09:03:06.665Z,14.05
2022-11-08T09:04:11.082Z,14.09
2022-11-08T09:05:13.415Z,14.09
2022-11-08T09:06:18.004Z,14.07
2022-11-08T09:07:19.853Z,14.13
2022-11-08T09:08:24.811Z,14.14
2022-11-08T09:09:29.261Z,14.17
2022-11-08T09:10:33.734Z,14.17
2022-11-08T09:11:35.506Z,14.20
2022-11-08T09:12:40.189Z,14.22
2022-11-08T09:13:44.552Z,14.25
2022-11-08T09:14:49.024Z,14.27
2022-11-08T09:15:53.420Z,14.30
2022-11-08T09:16:59.320Z,14.30
2022-11-08T09:18:04.637Z,14.33
2022-11-08T09:19:09.124Z,14.34
2022-11-08T09:20:11.381Z,14.36
2022-11-08T09:21:15.867Z,14.36
2022-11-08T09:22:20.280Z,14.38
2022-11-08T09:23:22.063Z,14.41
2022-11-08T09:24:26.505Z,14.43
2022-11-08T09:25:31.055Z,14.43
2022-11-08T09:26:35.441Z,14.39
2022-11-08T09:27:39.841Z,14.41
2022-11-08T09:28:44.361Z,14.42
2022-11-08T09:29:48.773Z,14.44
2022-11-08T09:30:53.146Z,14.43
2022-11-08T09:31:58.403Z,14.45
2022-11-08T09:33:03.164Z,14.45
2022-11-08T09:34:07.843Z,14.48
2022-11-08T09:35:12.319Z,14.52
2022-11-08T09:36:16.717Z,14.57
2022-11-08T09:37:21.112Z,14.59
2022-11-08T09:38:25.826Z,14.62
2022-11-08T09:39:27.608Z,14.64
2022-11-08T09:40:42.717Z,14.66
2022-11-08T09:42:05.454Z,14.68
2022-11-08T09:43:09.937Z,14.68
2022-11-08T09:44:32.618Z,14.71
2022-11-08T09:45:36.985Z,14.73
2022-11-08T09:46:54.086Z,14.74
2022-11-08T09:47:59.265Z,14.78
2022-11-08T09:49:03.803Z,14.80
2022-11-08T09:50:08.273Z,14.83
2022-11-08T09:51:16.490Z,14.87
2022-11-08T09:52:24.688Z,14.90
2022-11-08T09:53:35.498Z,14.90
2022-11-08T09:54:46.716Z,14.94
2022-11-08T09:56:09.973Z,14.97
2022-11-08T09:57:19.240Z,14.96
2022-11-08T09:58:37.759Z,14.96
2022-11-08T09:59:44.224Z,14.94
2022-11-08T10:00:50.933Z,14.95
2022-11-08T10:01:55.440Z,14.97
2022-11-08T10:02:59.928Z,14.98
2022-11-08T10:04:30.570Z,15.01
2022-11-08T10:05:37.321Z,15.05
2022-11-08T10:06:44.688Z,15.07
2022-11-08T10:07:59.733Z,15.12
2022-11-08T10:09:23.054Z,15.17
2022-11-08T10:10:57.318Z,15.23
2022-11-08T10:12:04.799Z,15.27
2022-11-08T10:13:06.648Z,15.30
2022-11-08T10:14:21.254Z,15.32
2022-11-08T10:15:37.652Z,15.34
2022-11-08T10:16:43.551Z,15.38
2022-11-08T10:18:00.881Z,15.38
2022-11-08T10:19:08.982Z,15.41
2022-11-08T10:20:45.916Z,15.44
2022-11-08T10:22:02.893Z,15.47
2022-11-08T10:23:19.838Z,15.50
2022-11-08T10:24:28.289Z,15.53
2022-11-08T10:25:36.248Z,15.54
2022-11-08T10:26:42.753Z,15.53
2022-11-08T10:27:44.519Z,15.57
2022-11-08T10:28:55.112Z,15.58
2022-11-08T10:30:00.537Z,15.57
2022-11-08T10:31:05.117Z,15.58
2022-11-08T10:32:16.718Z,15.59
2022-11-08T10:33:24.686Z,15.58
2022-11-08T10:34:30.069Z,15.63
2022-11-08T10:35:31.805Z,15.64
2022-11-08T10:36:37.949Z,15.66
2022-11-08T10:37:43.091Z,15.68
2022-11-08T10:39:20.058Z,15.69
2022-11-08T10:40:24.898Z,15.73
2022-11-08T10:41:32.143Z,15.76
2022-11-08T10:42:36.922Z,15.78
2022-11-08T10:43:45.061Z,15.83
2022-11-08T10:44:49.426Z,15.85
2022-11-08T10:45:51.210Z,15.89
2022-11-08T10:46:58.986Z,15.91
2022-11-08T10:48:04.378Z,15.93
2022-11-08T10:49:14.007Z,15.91
2022-11-08T10:50:23.027Z,15.95
2022-11-08T10:51:24.812Z,15.96
2022-11-08T10:52:40.169Z,15.99
2022-11-08T10:53:46.671Z,16.03
2022-11-08T10:54:57.519Z,16.06
2022-11-08T10:56:03.483Z,16.07
2022-11-08T10:57:05.251Z,16.08
2022-11-08T10:58:30.972Z,16.10
2022-11-08T10:59:33.083Z,16.12
2022-11-08T11:00:38.482Z,16.14
2022-11-08T11:01:44.862Z,16.16
2022-11-08T11:02:57.697Z,16.18
2022-11-08T11:04:02.107Z,16.22
2022-11-08T11:05:36.005Z,16.21
2022-11-08T11:06:40.459Z,16.27
2022-11-08T11:07:44.961Z,16.28
2022-11-08T11:08:53.345Z,16.31
2022-11-08T11:09:55.143Z,16.35
2022-11-08T11:10:59.589Z,16.37
2022-11-08T11:12:02.645Z,16.40
2022-11-08T11:13:13.011Z,16.43
2022-11-08T11:14:19.464Z,16.47
2022-11-08T11:15:26.804Z,16.53
2022-11-08T11:16:31.220Z,16.56
2022-11-08T11:17:37.123Z,16.58
2022-11-08T11:18:50.975Z,16.62
2022-11-08T11:19:58.734Z,16.63
2022-11-08T11:21:13.448Z,16.67
2022-11-08T11:22:15.295Z,16.71
2022-11-08T11:23:19.676Z,16.73
2022-11-08T11:24:24.374Z,16.75
2022-11-08T11:25:28.809Z,16.78
2022-11-08T11:26:34.666Z,16.79
2022-11-08T11:27:39.820Z,16.76
2022-11-08T11:29:00.833Z,16.85
2022-11-08T11:30:24.525Z,16.88
2022-11-08T11:31:28.945Z,16.89
2022-11-08T11:32:39.024Z,16.88
2022-11-08T11:33:46.996Z,16.88
2022-11-08T11:34:54.206Z,16.88
2022-11-08T11:35:59.826Z,16.88
2022-11-08T11:37:13.112Z,16.88
2022-11-08T11:38:22.716Z,16.87
2022-11-08T11:39:46.050Z,16.87
2022-11-08T11:40:50.492Z,16.86
2022-11-08T11:42:23.984Z,16.87
2022-11-08T11:43:32.898Z,16.84
2022-11-08T11:44:40.432Z,16.84
2022-11-08T11:45:49.460Z,16.86
2022-11-08T11:46:52.783Z,16.88
2022-11-08T11:48:01.407Z,16.92
2022-11-08T11:49:07.874Z,16.92
2022-11-08T11:50:18.777Z,16.95
2022-11-08T11:51:23.170Z,16.94
2022-11-08T11:52:25.048Z,16.96
2022-11-08T11:53:29.916Z,16.96
2022-11-08T11:54:32.274Z,16.97
2022-11-08T11:55:58.935Z,16.98
2022-11-08T11:57:26.965Z,16.98
2022-11-08T11:58:50.194Z,16.98
2022-11-08T11:59:55.695Z,17.00
2022-11-08T12:01:11.751Z,17.01
2022-11-08T12:02:18.623Z,17.02
2022-11-08T12:03:31.998Z,17.04
2022-11-08T12:04:55.146Z,17.02
2022-11-08T12:06:07.498Z,17.04
2022-11-08T12:07:17.730Z,17.04
2022-11-08T12:08:22.601Z,17.03
2022-11-08T12:09:30.994Z,17.00
2022-11-08T12:10:44.892Z,17.00
2022-11-08T12:11:55.423Z,17.00
2022-11-08T12:13:05.890Z,17.00
2022-11-08T12:14:16.847Z,17.00
2022-11-08T12:15:30.326Z,17.01
2022-11-08T12:16:53.174Z,17.01
2022-11-08T12:18:01.609Z,17.02
2022-11-08T12:19:20.813Z,17.03
2022-11-08T12:20:44.003Z,17.02
2022-11-08T12:21:54.884Z,17.03
2022-11-08T12:23:03.095Z,17.04
2022-11-08T12:24:07.984Z,17.05
2022-11-08T12:25:22.431Z,17.03
2022-11-08T12:26:29.965Z,17.04
2022-11-08T12:27:34.502Z,17.05
2022-11-08T12:28:42.173Z,17.05
2022-11-08T12:30:05.809Z,17.04
2022-11-08T12:31:20.176Z,17.02
2022-11-08T12:32:21.915Z,17.04
2022-11-08T12:33:26.504Z,17.02
2022-11-08T12:34:44.626Z,17.05
2022-11-08T12:36:07.259Z,17.05
2022-11-08T12:37:14.633Z,17.06
2022-11-08T12:38:19.110Z,17.06
2022-11-08T12:39:45.194Z,17.07
2022-11-08T12:41:01.816Z,17.07
2022-11-08T12:42:45.177Z,17.07
2022-11-08T12:44:08.648Z,17.08
2022-11-08T12:45:21.744Z,17.08
2022-11-08T12:46:26.196Z,17.06
2022-11-08T12:47:32.083Z,17.04
2022-11-08T12:48:39.281Z,17.04
2022-11-08T12:49:46.705Z,17.03
2022-11-08T12:50:51.108Z,17.03
2022-11-08T12:52:15.817Z,17.03
2022-11-08T12:53:26.287Z,17.05
2022-11-08T12:54:44.479Z,17.04
2022-11-08T12:55:47.386Z,17.06
2022-11-08T12:56:52.114Z,17.06
2022-11-08T12:57:54.342Z,17.06
2022-11-08T12:58:59.086Z,17.06
2022-11-08T13:00:06.415Z,17.05
2022-11-08T13:01:11.150Z,17.05
2022-11-08T13:02:17.949Z,17.05
2022-11-08T13:03:19.710Z,17.04
2022-11-08T13:04:39.848Z,17.04
2022-11-08T13:05:48.850Z,17.01
2022-11-08T13:07:11.659Z,17.02
2022-11-08T13:08:18.587Z,17.01
2022-11-08T13:09:29.137Z,16.99
2022-11-08T13:10:49.819Z,16.99
2022-11-08T13:11:52.593Z,16.95
2022-11-08T13:13:15.423Z,16.93
2022-11-08T13:14:20.402Z,16.92
2022-11-08T13:15:26.557Z,16.89
2022-11-08T13:16:29.660Z,16.88
2022-11-08T13:17:34.261Z,16.85
2022-11-08T13:18:36.845Z,16.83
2022-11-08T13:19:50.379Z,16.82
2022-11-08T13:20:54.809Z,16.78
2022-11-08T13:21:59.213Z,16.74
2022-11-08T13:23:08.673Z,16.70
2022-11-08T13:24:42.409Z,16.66
2022-11-08T13:25:36.548Z,16.61
2022-11-08T13:26:42.675Z,16.59
2022-11-08T13:27:48.452Z,16.56
2022-11-08T13:28:52.894Z,16.54
2022-11-08T13:29:54.780Z,16.51
2022-11-08T13:31:01.239Z,16.48
2022-11-08T13:32:06.397Z,16.46
2022-11-08T13:33:18.189Z,16.44
2022-11-08T13:34:44.242Z,16.41
2022-11-08T13:36:07.355Z,16.41
2022-11-08T13:37:20.781Z,16.36
2022-11-08T13:38:54.622Z,16.36
2022-11-08T13:40:02.001Z,16.33
2022-11-08T13:41:12.550Z,16.29
2022-11-08T13:42:19.922Z,16.26
2022-11-08T13:43:22.530Z,16.21
2022-11-08T13:44:45.765Z,16.19
2022-11-08T13:45:50.289Z,16.14
2022-11-08T13:46:54.747Z,16.13
2022-11-08T13:48:22.388Z,16.11
2022-11-08T13:49:26.998Z,16.07
2022-11-08T13:50:28.801Z,16.04
2022-11-08T13:51:36.743Z,16.01
2022-11-08T13:52:42.676Z,15.97
2022-11-08T13:53:47.173Z,15.93
2022-11-08T13:54:52.698Z,15.90
2022-11-08T13:55:59.062Z,15.87
2022-11-08T13:57:04.113Z,15.84
2022-11-08T13:58:28.527Z,15.81
2022-11-08T13:59:30.305Z,15.74
2022-11-08T14:00:35.996Z,15.70
2022-11-08T14:01:46.999Z,15.67
2022-11-08T14:02:51.450Z,15.63
2022-11-08T14:03:54.315Z,15.59
2022-11-08T14:05:00.666Z,15.54
2022-11-08T14:06:08.047Z,15.48
2022-11-08T14:07:25.774Z,15.43
2022-11-08T14:08:31.432Z,15.38
2022-11-08T14:09:35.767Z,15.33
2022-11-08T14:10:47.020Z,15.29
2022-11-08T14:11:52.485Z,15.21
2022-11-08T14:13:08.240Z,15.18
2022-11-08T14:14:18.666Z,15.12
2022-11-08T14:15:34.579Z,15.07
2022-11-08T14:16:57.823Z,15.00
2022-11-08T14:18:03.179Z,14.95
2022-11-08T14:19:26.525Z,14.90
2022-11-08T14:20:41.581Z,14.83
2022-11-08T14:21:47.946Z,14.75
2022-11-08T14:22:52.386Z,14.64
2022-11-08T14:23:57.108Z,14.63
2022-11-08T14:25:04.072Z,14.57
2022-11-08T14:26:09.176Z,14.52